Time;durP1;ratioP1;P1;durP2;ratioP2;P2;SDS_P1;SDS_P2;PMS_P1;PMS_P2;Temp;Humidity;BMP_temperature;BMP_pressure;BME280_temperature;BME280_humidity;BME280_pressure;Samples;Min_cycle;Max_cycle;Signal;HPM_P1;HPM_P2
2022/03/10 00:02:06;;;;;;;1.90;1.23;;;-1.10;96.30;-1.40;97376.00;;;;5011179;28;20438;-79
2022/03/10 00:04:55;;;;;;;2.27;1.90;;;-1.10;97.30;-1.20;97371.00;;;;5014675;28;20429;-82
2022/03/10 00:07:44;;;;;;;2.00;1.80;;;-1.20;97.40;-0.90;97367.00;;;;5014762;28;20449;-80
2022/03/10 00:10:33;;;;;;;5.83;2.13;;;-1.20;97.70;-0.70;97378.00;;;;5011024;28;20437;-81
2022/03/10 00:13:26;;;;;;;3.57;2.17;;;-1.20;97.80;-0.60;97387.00;;;;5014086;28;20430;-80
2022/03/10 00:16:15;;;;;;;3.90;2.43;;;-1.10;97.90;-1.00;97378.00;;;;5014683;28;20425;-81
2022/03/10 00:19:05;;;;;;;3.40;2.83;;;-1.10;97.70;-0.90;97380.00;;;;5015892;28;20432;-79
2022/03/10 00:21:54;;;;;;;2.57;1.97;;;-1.20;97.80;-1.00;97384.00;;;;5003239;28;20441;-81
2022/03/10 00:24:43;;;;;;;2.07;1.87;;;-1.20;97.90;-1.40;97384.00;;;;5020201;28;20457;-80
2022/03/10 00:27:32;;;;;;;1.70;1.60;;;-1.30;98.30;-1.40;97377.00;;;;5015967;28;20446;-81
2022/03/10 00:30:21;;;;;;;3.07;1.90;;;-1.40;99.10;-1.10;97378.00;;;;5008902;28;20429;-80
2022/03/10 00:33:09;;;;;;;1.70;1.60;;;-1.40;99.20;-1.30;97371.00;;;;5014410;28;20429;-82
2022/03/10 00:35:59;;;;;;;2.37;1.90;;;-1.40;99.70;-1.10;97380.00;;;;5014011;28;21019;-82
2022/03/10 00:38:48;;;;;;;2.60;2.27;;;-1.40;99.70;-1.10;97375.00;;;;5014825;28;20497;-83
2022/03/10 00:41:37;;;;;;;2.03;1.70;;;-1.40;99.80;-1.70;97382.00;;;;5028559;23;20937;-83
2022/03/10 00:44:26;;;;;;;2.10;1.93;;;-1.50;99.90;-1.40;97388.00;;;;5034140;28;20561;-83
2022/03/10 00:47:15;;;;;;;3.83;2.10;;;-1.50;99.90;-1.00;97390.00;;;;5029363;28;20420;-83
2022/03/10 00:50:06;;;;;;;1.90;1.60;;;-1.50;99.90;-1.10;97395.00;;;;5034923;28;20806;-83
2022/03/10 00:52:57;;;;;;;3.13;1.87;;;-1.50;99.90;-1.10;97389.00;;;;5024579;28;20449;-84
2022/03/10 00:55:45;;;;;;;2.80;1.80;;;-1.50;99.90;-1.10;97393.00;;;;5037559;28;20911;-82
2022/03/10 00:58:34;;;;;;;1.80;1.53;;;-1.50;99.90;-1.40;97388.00;;;;5036637;28;20425;-82
2022/03/10 01:01:23;;;;;;;1.53;0.70;;;-1.50;99.90;-2.20;97373.00;;;;5036503;28;20467;-86
2022/03/10 01:04:12;;;;;;;3.27;1.90;;;-1.60;99.90;-1.90;97389.00;;;;5028650;28;20951;-84
2022/03/10 01:07:00;;;;;;;2.20;1.37;;;-1.70;99.90;-1.50;97401.00;;;;5036657;28;20423;-83
2022/03/10 01:09:51;;;;;;;2.43;2.27;;;-1.70;99.90;-1.30;97401.00;;;;5035882;28;20435;-85
2022/03/10 01:12:42;;;;;;;3.30;2.30;;;-1.70;99.90;-1.10;97402.00;;;;5035810;28;20448;-86
2022/03/10 01:15:31;;;;;;;1.83;1.50;;;-1.70;99.90;-1.50;97405.00;;;;5022200;28;20498;-86
2022/03/10 01:18:20;;;;;;;1.27;1.23;;;-1.70;99.90;-1.50;97414.00;;;;5035054;28;20538;-85
2022/03/10 01:21:08;;;;;;;2.40;1.13;;;-1.70;99.90;-1.60;97404.00;;;;5021465;28;21022;-86
2022/03/10 01:23:57;;;;;;;2.67;1.83;;;-1.70;99.90;-1.60;97395.00;;;;5036536;28;20709;-85
2022/03/10 01:26:47;;;;;;;2.17;1.63;;;-1.30;99.90;-1.60;97406.00;;;;5039225;28;20455;-86
2022/03/10 01:29:36;;;;;;;1.60;1.50;;;-1.80;99.90;-1.60;97398.00;;;;5039782;28;20428;-85
2022/03/10 01:32:25;;;;;;;1.53;1.40;;;-1.80;99.90;-1.50;97398.00;;;;5045109;28;20456;-85
2022/03/10 01:35:14;;;;;;;1.70;1.60;;;-1.80;99.90;-1.30;97416.00;;;;5039110;28;20947;-85
2022/03/10 01:38:03;;;;;;;1.60;1.50;;;-1.80;99.90;-1.40;97398.00;;;;5020048;28;20424;-86
2022/03/10 01:40:52;;;;;;;1.40;1.30;;;-1.70;99.90;-1.40;97404.00;;;;5035479;28;20475;-85
2022/03/10 01:43:57;;;;;;;1.80;1.67;;;-1.70;99.90;-1.60;97402.00;;;;5039406;28;20461;-85
2022/03/10 01:46:46;;;;;;;3.03;1.93;;;-1.70;99.90;-1.60;97405.00;;;;5020759;28;20440;-85
2022/03/10 01:49:35;;;;;;;2.80;2.47;;;-1.80;99.90;-1.80;97394.00;;;;5027719;28;20638;-85
2022/03/10 01:52:25;;;;;;;4.00;1.70;;;-1.80;99.90;-1.70;97396.00;;;;5036165;28;20449;-85
2022/03/10 01:55:14;;;;;;;2.20;1.90;;;-1.90;99.90;-1.70;97403.00;;;;5035308;28;20427;-85
2022/03/10 01:58:03;;;;;;;1.97;1.73;;;-1.90;99.90;-1.60;97398.00;;;;5040090;28;20827;-84
2022/03/10 02:00:53;;;;;;;2.33;1.43;;;-1.90;99.90;-1.50;97396.00;;;;5040368;28;20475;-84
2022/03/10 02:03:42;;;;;;;2.53;1.53;;;-1.80;99.90;-1.80;97397.00;;;;5039975;28;20480;-84
2022/03/10 02:06:31;;;;;;;1.60;1.50;;;-1.90;99.90;-1.60;97404.00;;;;5040854;28;20425;-85
2022/03/10 02:12:32;;;;;;;7.27;2.17;;;-1.90;99.90;-1.70;97407.00;;;;5038829;28;20812;-86
2022/03/10 02:18:31;;;;;;;1.83;1.73;;;-1.90;99.90;-1.60;97399.00;;;;5026532;28;20429;-84
2022/03/10 02:21:20;;;;;;;1.80;1.70;;;-1.90;99.90;-1.80;97408.00;;;;5040343;28;20525;-85
2022/03/10 02:24:10;;;;;;;3.20;1.70;;;-1.90;99.90;-2.20;97410.00;;;;5040280;28;20433;-84
2022/03/10 02:26:59;;;;;;;2.10;1.90;;;-2.00;99.90;-2.10;97412.00;;;;5032218;28;20795;-84
2022/03/10 02:29:49;;;;;;;2.67;2.43;;;-2.10;99.90;-1.80;97426.00;;;;5040082;28;20463;-84
2022/03/10 02:32:38;;;;;;;2.37;2.17;;;-2.10;99.90;-1.80;97422.00;;;;5045638;28;20447;-84
2022/03/10 02:35:28;;;;;;;3.80;2.20;;;-2.00;99.90;-1.60;97420.00;;;;5035906;28;20412;-84
2022/03/10 02:38:18;;;;;;;2.33;2.13;;;-2.00;99.90;-1.60;97421.00;;;;5028263;28;20436;-83
2022/03/10 02:41:08;;;;;;;2.63;2.40;;;-1.90;99.90;-2.00;97417.00;;;;5041282;28;20885;-84
2022/03/10 02:43:57;;;;;;;2.00;1.63;;;-1.80;99.90;-2.00;97424.00;;;;5030644;28;20981;-83
2022/03/10 02:46:46;;;;;;;2.07;1.83;;;-2.10;99.90;-1.80;97429.00;;;;5040680;28;20421;-84
2022/03/10 02:49:35;;;;;;;1.90;1.70;;;-2.10;99.90;-1.80;97426.00;;;;5039523;28;20923;-83
2022/03/10 02:52:23;;;;;;;2.40;2.17;;;-2.10;99.90;-1.80;97424.00;;;;5039802;28;20452;-84
2022/03/10 02:55:13;;;;;;;2.10;1.90;;;-2.10;99.90;-2.00;97426.00;;;;5031885;28;20431;-83
2022/03/10 02:58:03;;;;;;;2.10;1.93;;;-2.10;99.90;-2.30;97404.00;;;;5037575;28;20444;-83
2022/03/10 03:00:52;;;;;;;2.40;2.20;;;-2.30;99.90;-3.00;97420.00;;;;5026153;28;20495;-83
2022/03/10 03:03:41;;;;;;;1.90;1.80;;;-2.40;99.90;-2.60;97420.00;;;;5037013;28;20446;-83
2022/03/10 03:06:30;;;;;;;2.47;1.67;;;-2.50;99.90;-2.50;97419.00;;;;5036484;28;20428;-84
2022/03/10 03:09:19;;;;;;;2.70;2.33;;;-2.50;99.90;-2.70;97413.00;;;;5037127;28;20417;-84
2022/03/10 03:12:08;;;;;;;2.80;2.10;;;-2.40;99.90;-2.50;97423.00;;;;5035545;28;20451;-83
2022/03/10 03:14:58;;;;;;;1.60;1.50;;;-2.60;99.90;-2.20;97439.00;;;;5034061;28;20803;-83
2022/03/10 03:17:48;;;;;;;1.77;1.40;;;-2.30;99.90;-2.70;97437.00;;;;5034635;28;20445;-83
2022/03/10 03:20:36;;;;;;;2.27;1.93;;;-2.60;99.90;-2.90;97445.00;;;;5036765;28;20483;-84
2022/03/10 03:23:25;;;;;;;2.73;1.67;;;-2.70;99.90;-2.80;97446.00;;;;5036052;28;20455;-83
2022/03/10 03:26:14;;;;;;;2.00;1.80;;;-2.80;99.90;-2.60;97449.00;;;;5048655;28;20433;-83
2022/03/10 03:29:03;;;;;;;1.73;1.63;;;-2.80;99.90;-2.50;97454.00;;;;5026919;28;20425;-83
2022/03/10 03:31:53;;;;;;;2.30;2.03;;;-2.80;99.90;-2.80;97449.00;;;;5035743;28;20444;-83
2022/03/10 03:34:42;;;;;;;8.07;2.50;;;-2.80;99.90;-3.20;97453.00;;;;5040857;28;20432;-83
2022/03/10 03:37:31;;;;;;;2.07;1.97;;;-2.90;99.90;-2.80;97447.00;;;;5035896;28;20915;-83
2022/03/10 03:40:20;;;;;;;2.53;1.87;;;-2.10;99.90;-2.80;97453.00;;;;5046319;28;20428;-83
2022/03/10 03:43:08;;;;;;;1.77;1.67;;;-2.90;99.90;-3.20;97459.00;;;;5026330;28;20471;-83
2022/03/10 03:45:57;;;;;;;1.70;1.60;;;-2.40;99.90;-2.70;97459.00;;;;5037641;28;20439;-83
2022/03/10 03:48:48;;;;;;;2.37;2.17;;;-2.30;99.90;-2.60;97470.00;;;;5038326;28;20436;-83
2022/03/10 03:51:37;;;;;;;1.90;1.80;;;-2.90;99.90;-3.10;97466.00;;;;5027051;28;20428;-84
2022/03/10 03:54:25;;;;;;;2.07;1.97;;;-2.30;99.90;-3.30;97473.00;;;;5025358;28;20427;-83
2022/03/10 03:57:14;;;;;;;2.20;1.63;;;-2.90;99.90;-3.20;97462.00;;;;5037058;28;20429;-83
2022/03/10 04:00:05;;;;;;;4.40;2.50;;;-2.90;99.90;-2.60;97472.00;;;;5024435;28;20436;-82
2022/03/10 04:02:54;;;;;;;2.10;1.80;;;-2.90;99.90;-2.50;97480.00;;;;5017621;28;20472;-83
2022/03/10 04:05:44;;;;;;;2.30;2.13;;;-2.90;99.90;-2.70;97472.00;;;;5022656;28;20428;-84
2022/03/10 04:08:35;;;;;;;2.40;2.20;;;-2.90;99.90;-2.90;97482.00;;;;5035018;28;20970;-85
2022/03/10 04:11:24;;;;;;;8.43;5.17;;;-2.90;99.90;-2.80;97474.00;;;;5036128;28;21025;-85
2022/03/10 04:14:13;;;;;;;3.73;3.37;;;-2.40;99.90;-2.70;97489.00;;;;5024708;28;20424;-84
2022/03/10 04:17:02;;;;;;;12.90;7.70;;;-2.90;99.90;-2.60;97485.00;;;;5035844;28;20432;-84
2022/03/10 04:19:51;;;;;;;11.63;7.43;;;-2.90;99.90;-2.50;97492.00;;;;5036238;28;20444;-85
2022/03/10 04:22:42;;;;;;;30.57;11.43;;;-2.10;99.90;-2.50;97499.00;;;;5034914;28;20479;-85
2022/03/10 04:25:30;;;;;;;14.50;9.87;;;-2.70;99.90;-2.80;97492.00;;;;5035451;28;20963;-82
2022/03/10 04:28:19;;;;;;;7.13;5.57;;;-2.80;99.90;-2.80;97494.00;;;;5023068;28;20427;-84
2022/03/10 04:31:08;;;;;;;6.50;5.10;;;-2.40;99.90;-2.70;97488.00;;;;5033458;28;20981;-85
2022/03/10 04:33:57;;;;;;;9.80;5.40;;;-2.90;99.90;-3.00;97499.00;;;;5037861;28;20425;-84
2022/03/10 04:36:45;;;;;;;3.87;3.23;;;-2.90;99.90;-3.30;97484.00;;;;5035610;28;20435;-85
2022/03/10 04:39:36;;;;;;;3.17;2.37;;;-3.00;99.90;-3.60;97495.00;;;;5033531;28;20433;-85
2022/03/10 04:42:24;;;;;;;2.90;2.30;;;-3.20;99.90;-3.10;97503.00;;;;5033320;28;20716;-86
2022/03/10 04:45:13;;;;;;;2.83;2.30;;;-2.80;99.90;-3.00;97498.00;;;;5035883;28;20806;-83
2022/03/10 04:48:06;;;;;;;4.53;3.13;;;-2.60;99.90;-2.90;97500.00;;;;5035830;28;20432;-85
2022/03/10 04:50:55;;;;;;;4.53;3.87;;;-3.30;99.90;-3.10;97496.00;;;;5033323;28;20430;-85
2022/03/10 04:53:44;;;;;;;3.70;3.33;;;-3.20;99.90;-3.20;97495.00;;;;5035115;28;20455;-85
2022/03/10 04:56:34;;;;;;;3.77;3.23;;;-3.20;99.90;-3.00;97495.00;;;;5035002;28;20887;-85
2022/03/10 04:59:25;;;;;;;3.07;2.40;;;-2.70;99.90;-3.10;97511.00;;;;5036254;28;20437;-84
2022/03/10 05:02:13;;;;;;;3.33;2.00;;;-2.50;99.90;-2.90;97499.00;;;;5037010;28;20468;-85
2022/03/10 05:05:03;;;;;;;10.50;9.70;;;-3.20;99.90;-3.20;97496.00;;;;5039163;28;20498;-85
2022/03/10 05:07:58;;;;;;;6.77;6.33;;;-3.20;99.90;-3.50;97488.00;;;;5037942;28;20495;-85
2022/03/10 05:10:47;;;;;;;1.87;1.73;;;-3.30;99.90;-3.80;97493.00;;;;5036651;28;20432;-85
2022/03/10 05:13:37;;;;;;;3.67;2.30;;;-2.90;99.90;-3.40;97509.00;;;;5032182;28;20463;-86
2022/03/10 05:16:25;;;;;;;3.60;2.60;;;-3.30;99.90;-3.20;97495.00;;;;5035812;28;20428;-85
2022/03/10 05:19:14;;;;;;;1.87;1.77;;;-3.30;99.90;-3.10;97494.00;;;;5032083;28;20938;-85
2022/03/10 05:22:04;;;;;;;3.80;2.20;;;-3.40;99.90;-3.00;97505.00;;;;5017455;28;20475;-84
2022/03/10 05:24:52;;;;;;;2.30;2.10;;;-3.30;99.90;-2.80;97510.00;;;;5032644;28;20433;-85
2022/03/10 05:27:42;;;;;;;2.40;2.20;;;-2.60;99.90;-3.00;97518.00;;;;5032897;28;20420;-85
2022/03/10 05:30:33;;;;;;;3.70;3.20;;;-3.20;99.90;-3.20;97511.00;;;;5038996;28;20428;-85
2022/03/10 05:33:21;;;;;;;2.20;1.80;;;-3.20;99.90;-2.80;97516.00;;;;5031839;28;20432;-85
2022/03/10 05:36:10;;;;;;;2.93;2.47;;;-3.00;99.90;-2.80;97518.00;;;;5038196;28;20424;-84
2022/03/10 05:39:01;;;;;;;3.70;1.80;;;-3.20;99.90;-2.90;97524.00;;;;5031228;28;20494;-85
2022/03/10 05:41:50;;;;;;;2.60;2.33;;;-3.10;99.90;-3.40;97505.00;;;;5039887;28;20480;-84
2022/03/10 05:44:39;;;;;;;3.00;2.80;;;-3.20;99.90;-3.30;97521.00;;;;5025822;28;20421;-85
2022/03/10 05:47:29;;;;;;;1.93;1.83;;;-3.20;99.90;-3.00;97525.00;;;;5038515;28;20428;-84
2022/03/10 05:50:19;;;;;;;2.70;2.20;;;-3.30;99.90;-2.90;97531.00;;;;5037907;28;20425;-84
2022/03/10 05:53:07;;;;;;;4.00;2.60;;;-3.20;99.90;-3.10;97533.00;;;;5038015;28;20451;-84
2022/03/10 05:55:56;;;;;;;3.03;2.83;;;-2.50;99.90;-3.70;97516.00;;;;5040025;28;20830;-85
2022/03/10 05:58:45;;;;;;;2.27;2.10;;;-3.30;99.90;-3.90;97512.00;;;;5037827;28;20429;-84
2022/03/10 06:01:34;;;;;;;2.80;2.60;;;-3.40;99.90;-3.50;97529.00;;;;5039509;28;20783;-84
2022/03/10 06:04:24;;;;;;;4.20;2.80;;;-3.00;99.90;-3.10;97534.00;;;;5038548;28;20425;-85
2022/03/10 06:07:13;;;;;;;3.23;2.93;;;-2.50;99.90;-3.30;97523.00;;;;5041932;28;20420;-84
2022/03/10 06:10:03;;;;;;;2.47;2.30;;;-3.20;99.90;-2.90;97533.00;;;;5036162;28;20435;-84
2022/03/10 06:12:52;;;;;;;2.23;2.03;;;-3.20;99.90;-2.90;97532.00;;;;5045267;28;20447;-84
2022/03/10 06:15:41;;;;;;;1.73;1.63;;;-3.00;99.90;-2.70;97532.00;;;;5028340;28;20436;-84
2022/03/10 06:18:29;;;;;;;3.27;2.83;;;-2.60;99.90;-2.40;97544.00;;;;5036677;28;20452;-83
2022/03/10 06:21:21;;;;;;;2.90;2.23;;;-2.90;99.90;-2.40;97551.00;;;;5038235;28;20432;-84
2022/03/10 06:24:10;;;;;;;2.83;2.30;;;-2.80;99.90;-2.40;97549.00;;;;5038478;28;20478;-84
2022/03/10 06:26:59;;;;;;;3.23;2.37;;;-2.70;99.90;-2.40;97544.00;;;;5030980;28;20412;-84
2022/03/10 06:29:48;;;;;;;3.77;2.87;;;-2.10;99.90;-2.70;97556.00;;;;5034933;28;20440;-84
2022/03/10 06:32:37;;;;;;;3.33;1.77;;;-2.50;99.90;-2.80;97551.00;;;;5041552;28;20456;-84
2022/03/10 06:35:26;;;;;;;4.03;2.97;;;-2.50;99.90;-2.40;97559.00;;;;5046114;28;20611;-84
2022/03/10 06:38:16;;;;;;;3.30;2.97;;;-2.50;99.90;-2.30;97557.00;;;;5042135;28;20415;-84
2022/03/10 06:41:05;;;;;;;11.27;2.20;;;-2.40;99.90;-2.20;97563.00;;;;5035931;28;20446;-84
2022/03/10 06:43:53;;;;;;;3.27;2.23;;;-2.40;99.90;-2.00;97573.00;;;;5024506;22;20485;-66
2022/03/10 06:46:42;;;;;;;3.90;2.63;;;-2.30;99.90;-2.20;97574.00;;;;4990338;28;20430;-66
2022/03/10 06:49:31;;;;;;;3.87;2.00;;;-2.20;99.90;-2.30;97575.00;;;;4992505;28;20445;-66
2022/03/10 06:52:20;;;;;;;9.37;4.93;;;-2.20;99.90;-2.10;97581.00;;;;5000556;28;20430;-66
2022/03/10 06:55:13;;;;;;;4.53;3.40;;;-2.10;99.90;-1.70;97590.00;;;;5005787;23;20486;-82
2022/03/10 06:58:02;;;;;;;3.03;2.73;;;-2.00;99.90;-1.70;97585.00;;;;5001255;28;20444;-83
2022/03/10 07:00:53;;;;;;;2.73;1.90;;;-1.90;99.90;-1.40;97593.00;;;;5000112;28;20965;-83
2022/03/10 07:03:48;;;;;;;2.57;2.37;;;-1.80;99.90;-1.00;97589.00;;;;5011851;28;20425;-83
2022/03/10 07:06:38;;;;;;;3.73;2.83;;;-1.60;99.90;-0.70;97594.00;;;;5012173;28;20516;-83
2022/03/10 07:09:27;;;;;;;3.03;2.30;;;-1.40;99.90;-0.70;97596.00;;;;5011782;28;20950;-83
2022/03/10 07:12:17;;;;;;;2.53;2.30;;;-1.20;99.90;-0.60;97585.00;;;;5011381;28;20446;-83
2022/03/10 07:15:08;;;;;;;7.70;3.23;;;-1.00;99.90;-0.30;97589.00;;;;5011388;28;20429;-84
2022/03/10 07:17:57;;;;;;;1.93;1.83;;;-0.90;99.90;0.50;97607.00;;;;5010031;28;20430;-83
2022/03/10 07:20:47;;;;;;;2.97;2.67;;;-0.70;99.90;0.10;97590.00;;;;5008223;28;20444;-84
2022/03/10 07:23:35;;;;;;;4.10;2.50;;;-0.50;99.90;0.00;97586.00;;;;5007022;28;20429;-84
2022/03/10 07:26:27;;;;;;;4.47;3.07;;;-0.40;99.90;0.50;97585.00;;;;5004133;28;20437;-84
2022/03/10 07:29:21;;;;;;;6.87;3.60;;;-0.30;99.90;0.60;97581.00;;;;5022323;28;20429;-86
2022/03/10 07:32:11;;;;;;;6.33;3.60;;;-0.10;99.90;0.50;97581.00;;;;5014504;28;20452;-86
2022/03/10 07:35:01;;;;;;;3.63;3.33;;;0.10;99.90;0.90;97584.00;;;;5016029;28;20436;-85
2022/03/10 07:37:56;;;;;;;4.80;3.87;;;0.20;99.90;0.90;97582.00;;;;5015905;28;20448;-86
2022/03/10 07:40:45;;;;;;;7.70;7.00;;;0.40;99.90;0.80;97577.00;;;;5011662;28;20429;-86
2022/03/10 07:43:34;;;;;;;4.97;4.53;;;0.40;99.90;1.10;97577.00;;;;5014833;28;20444;-85
2022/03/10 07:46:26;;;;;;;6.63;3.77;;;0.50;99.90;1.40;97574.00;;;;5015974;28;20493;-86
2022/03/10 07:49:18;;;;;;;4.23;3.67;;;0.70;99.90;1.70;97577.00;;;;5012291;28;20444;-85
2022/03/10 07:52:07;;;;;;;4.10;3.43;;;0.90;99.90;2.00;97584.00;;;;5015119;28;20447;-85
2022/03/10 07:54:56;;;;;;;8.77;4.60;;;1.10;99.90;2.30;97577.00;;;;5008537;28;20471;-85
2022/03/10 07:57:47;;;;;;;7.50;4.70;;;1.30;99.90;2.80;97589.00;;;;5007137;28;20422;-85
2022/03/10 08:00:36;;;;;;;8.73;4.53;;;1.50;99.90;3.20;97595.00;;;;5011074;28;20425;-85
2022/03/10 08:03:30;;;;;;;8.47;5.20;;;1.80;99.90;3.60;97595.00;;;;5009771;28;20452;-85
2022/03/10 08:06:24;;;;;;;14.97;5.93;;;2.10;99.90;3.90;97597.00;;;;5010455;28;20832;-85
2022/03/10 08:09:15;;;;;;;6.63;4.90;;;2.40;99.90;4.20;97599.00;;;;5011347;28;20831;-85
2022/03/10 08:12:04;;;;;;;5.83;3.97;;;3.50;99.90;4.50;97599.00;;;;5009921;28;20449;-85
2022/03/10 08:14:53;;;;;;;13.67;5.23;;;3.00;99.90;4.80;97595.00;;;;5012472;28;20481;-85
2022/03/10 08:17:42;;;;;;;8.53;5.47;;;3.30;99.90;5.00;97594.00;;;;5023693;28;20445;-84
2022/03/10 08:20:32;;;;;;;6.37;4.80;;;3.60;99.90;5.20;97594.00;;;;5009882;28;20430;-86
2022/03/10 08:23:21;;;;;;;6.17;4.83;;;3.80;99.90;5.30;97587.00;;;;5015544;28;20443;-85
2022/03/10 08:26:10;;;;;;;10.43;5.90;;;4.10;99.40;5.70;97594.00;;;;5024563;28;20809;-85
2022/03/10 08:28:59;;;;;;;11.73;4.50;;;4.30;98.70;5.90;97589.00;;;;5015872;28;20434;-85
2022/03/10 08:31:49;;;;;;;9.03;4.63;;;4.50;97.80;6.10;97587.00;;;;5004247;28;20452;-85
2022/03/10 08:34:38;;;;;;;6.27;4.77;;;4.70;96.30;6.30;97591.00;;;;5017722;28;20469;-86
2022/03/10 08:37:28;;;;;;;5.67;4.67;;;4.90;95.80;6.50;97590.00;;;;5013882;28;20980;-85
2022/03/10 08:40:19;;;;;;;9.90;4.80;;;5.10;95.40;6.60;97595.00;;;;5014837;28;20433;-86
2022/03/10 08:43:11;;;;;;;10.27;4.60;;;5.30;94.60;6.90;97594.00;;;;5022449;28;20225;-86
2022/03/10 08:46:02;;;;;;;5.97;4.53;;;5.50;94.00;7.00;97600.00;;;;5015331;28;20214;-85
2022/03/10 08:48:51;;;;;;;7.00;4.50;;;5.70;93.10;7.20;97596.00;;;;5014475;28;20659;-85
2022/03/10 08:51:41;;;;;;;6.80;4.23;;;5.80;92.50;7.30;97590.00;;;;5019513;28;20226;-85
2022/03/10 08:54:31;;;;;;;9.13;4.63;;;6.00;91.90;7.50;97590.00;;;;5018983;28;20225;-85
2022/03/10 08:57:21;;;;;;;6.33;4.50;;;6.10;91.60;7.70;97591.00;;;;5011295;28;20198;-86
2022/03/10 09:00:12;;;;;;;8.33;5.20;;;6.30;91.00;7.80;97584.00;;;;5016031;28;20210;-86
2022/03/10 09:03:02;;;;;;;8.30;5.40;;;6.50;90.70;8.10;97583.00;;;;5013698;28;20222;-86
2022/03/10 09:05:50;;;;;;;5.67;4.23;;;6.70;90.50;8.60;97585.00;;;;5015744;28;20204;-86
2022/03/10 09:08:39;;;;;;;8.40;4.70;;;6.90;90.40;8.60;97589.00;;;;5016209;28;20202;-86
2022/03/10 09:11:30;;;;;;;7.17;4.37;;;7.10;87.20;8.90;97575.00;;;;5011084;28;20222;-85
2022/03/10 09:14:19;;;;;;;7.00;5.03;;;7.40;84.60;9.20;97582.00;;;;5010593;28;20237;-85
2022/03/10 09:17:08;;;;;;;5.57;4.33;;;7.60;82.20;9.50;97577.00;;;;5010377;28;20205;-85
2022/03/10 09:19:57;;;;;;;8.17;4.73;;;7.80;80.80;9.70;97578.00;;;;5004189;28;20226;-86
2022/03/10 09:22:46;;;;;;;8.27;4.93;;;8.00;78.30;9.90;97587.00;;;;5003024;28;20230;-85
2022/03/10 09:25:35;;;;;;;7.50;5.40;;;8.30;75.80;10.00;97593.00;;;;5012851;28;20213;-85
2022/03/10 09:28:25;;;;;;;6.73;5.60;;;8.50;74.50;9.90;97584.00;;;;4997032;28;20206;-85
2022/03/10 09:31:16;;;;;;;7.63;5.40;;;8.70;72.00;9.70;97583.00;;;;5009033;28;20229;-84
2022/03/10 09:34:05;;;;;;;7.70;5.77;;;8.80;68.50;9.90;97581.00;;;;5006753;28;20694;-86
2022/03/10 09:36:54;;;;;;;9.37;5.50;;;8.90;68.60;10.40;97588.00;;;;5011691;28;20224;-84
2022/03/10 09:39:43;;;;;;;10.13;5.47;;;9.00;69.30;10.60;97580.00;;;;5008502;28;20202;-84
2022/03/10 09:42:33;;;;;;;8.53;5.13;;;9.20;67.70;10.40;97590.00;;;;5009423;28;20230;-85
2022/03/10 09:45:25;;;;;;;9.20;6.70;;;9.40;66.00;10.50;97586.00;;;;5009700;28;20206;-84
2022/03/10 09:48:14;;;;;;;10.20;5.03;;;9.40;65.40;10.50;97587.00;;;;5013076;28;20221;-85
2022/03/10 09:51:03;;;;;;;8.13;5.17;;;9.60;64.60;10.40;97578.00;;;;5012538;28;20214;-84
2022/03/10 09:53:52;;;;;;;9.03;5.47;;;9.60;62.60;10.90;97573.00;;;;5013205;28;20236;-84
2022/03/10 09:56:43;;;;;;;6.23;5.40;;;9.70;62.70;11.10;97583.00;;;;5013538;28;20218;-84
2022/03/10 09:59:31;;;;;;;12.40;5.63;;;9.80;63.30;11.00;97579.00;;;;5002702;28;20198;-85
2022/03/10 10:02:22;;;;;;;11.93;6.30;;;10.00;62.70;11.20;97580.00;;;;5010380;28;20225;-85
2022/03/10 10:05:24;;;;;;;7.73;4.70;;;10.10;61.70;10.30;97575.00;;;;5007610;28;20206;-85
2022/03/10 10:08:17;;;;;;;6.93;4.93;;;10.10;59.80;10.30;97567.00;;;;5011704;28;20194;-83
2022/03/10 10:11:07;;;;;;;10.90;6.10;;;10.10;59.40;11.20;97580.00;;;;5016936;28;20224;-83
2022/03/10 10:13:55;;;;;;;11.23;5.23;;;10.10;59.70;11.90;97577.00;;;;5019787;28;20209;-83
2022/03/10 10:16:48;;;;;;;9.70;5.03;;;10.20;59.80;11.30;97569.00;;;;5023137;28;20202;-83
2022/03/10 10:19:41;;;;;;;11.30;5.70;;;10.40;58.20;11.50;97570.00;;;;5011193;28;20191;-83
2022/03/10 10:22:45;;;;;;;7.67;5.57;;;10.50;57.90;12.30;97573.00;;;;5019515;28;20387;-83
2022/03/10 10:25:33;;;;;;;6.77;5.17;;;10.70;58.30;12.50;97560.00;;;;5020371;28;20197;-85
2022/03/10 10:28:35;;;;;;;8.17;5.83;;;10.90;57.20;12.40;97576.00;;;;5024246;28;20694;-86
2022/03/10 10:31:25;;;;;;;9.30;5.70;;;11.10;56.90;11.80;97563.00;;;;5017351;28;20214;-86
2022/03/10 10:34:14;;;;;;;7.57;5.83;;;11.30;56.10;11.40;97568.00;;;;5024582;28;20218;-85
2022/03/10 10:37:05;;;;;;;8.87;5.70;;;11.20;55.80;11.60;97566.00;;;;5022257;28;20206;-86
2022/03/10 10:39:56;;;;;;;9.67;6.77;;;11.10;55.80;11.30;97552.00;;;;5017775;28;20210;-86
2022/03/10 10:42:45;;;;;;;7.43;5.43;;;11.10;55.80;10.30;97560.00;;;;5012304;28;20226;-85
2022/03/10 10:45:36;;;;;;;7.43;6.60;;;11.10;55.30;10.80;97556.00;;;;5016669;28;20204;-85
2022/03/10 10:48:25;;;;;;;12.00;5.87;;;10.80;55.70;11.70;97558.00;;;;5020700;28;20198;-85
2022/03/10 10:51:15;;;;;;;6.57;4.87;;;10.90;55.90;11.70;97551.00;;;;5018730;28;20222;-86
2022/03/10 10:54:08;;;;;;;8.60;6.20;;;11.10;55.40;11.40;97547.00;;;;5019312;28;20694;-86
2022/03/10 10:57:09;;;;;;;8.17;5.80;;;11.40;55.00;12.60;97546.00;;;;5019998;28;20208;-83
2022/03/10 11:00:12;;;;;;;7.67;5.40;;;11.40;54.80;12.00;97540.00;;;;5018444;28;20197;-83
2022/03/10 11:03:19;;;;;;;8.07;6.77;;;11.70;53.50;13.60;97554.00;;;;5015819;28;20212;-84
2022/03/10 11:06:08;;;;;;;10.40;6.20;;;12.00;54.10;13.90;97546.00;;;;5003341;28;20683;-84
2022/03/10 11:08:57;;;;;;;10.53;6.80;;;12.50;53.60;13.90;97542.00;;;;5008560;28;20201;-84
2022/03/10 11:11:48;;;;;;;7.90;5.50;;;12.80;52.90;13.50;97544.00;;;;5000890;28;20226;-83
2022/03/10 11:14:37;;;;;;;8.63;6.57;;;13.10;51.70;14.70;97546.00;;;;5013159;28;20209;-84
2022/03/10 11:17:26;;;;;;;8.83;6.23;;;13.30;51.70;14.00;97534.00;;;;5007676;28;20209;-84
2022/03/10 11:20:15;;;;;;;13.50;6.70;;;13.50;50.70;14.80;97537.00;;;;5011613;28;20578;-84
2022/03/10 11:23:15;;;;;;;9.97;6.97;;;13.60;50.90;14.40;97535.00;;;;5010239;28;20226;-83
2022/03/10 11:26:10;;;;;;;7.97;5.73;;;13.80;50.10;14.50;97533.00;;;;5011422;28;20229;-84
2022/03/10 11:29:01;;;;;;;11.03;6.67;;;14.00;50.00;15.70;97538.00;;;;5009933;28;20687;-84
2022/03/10 11:31:50;;;;;;;7.13;5.97;;;14.20;50.40;16.00;97532.00;;;;4998947;28;20656;-84
2022/03/10 11:34:46;;;;;;;9.63;5.97;;;14.40;50.10;16.80;97542.00;;;;5009983;28;20213;-84
2022/03/10 11:37:51;;;;;;;11.03;7.17;;;14.70;50.00;16.90;97550.00;;;;5013137;28;20691;-84
2022/03/10 11:40:43;;;;;;;8.60;6.57;;;15.10;49.30;15.90;97529.00;;;;5004838;28;20217;-85
2022/03/10 11:43:34;;;;;;;7.63;6.43;;;15.20;48.00;16.90;97544.00;;;;5009831;28;20707;-84
2022/03/10 11:46:27;;;;;;;10.00;6.00;;;15.40;48.70;15.80;97528.00;;;;5012497;28;20294;-84
2022/03/10 11:49:16;;;;;;;11.20;7.03;;;15.40;47.30;15.10;97527.00;;;;5011317;28;20202;-84
2022/03/10 11:52:22;;;;;;;7.80;6.03;;;15.50;47.60;16.00;97534.00;;;;5004730;28;20230;-84
2022/03/10 11:55:13;;;;;;;13.90;6.70;;;15.60;46.50;15.40;97530.00;;;;5009028;28;20691;-84
2022/03/10 11:58:04;;;;;;;9.83;7.67;;;15.30;46.70;14.50;97532.00;;;;5013483;28;20217;-84
2022/03/10 12:00:57;;;;;;;8.13;6.60;;;15.30;46.60;16.00;97527.00;;;;5008922;28;20572;-84
2022/03/10 12:03:48;;;;;;;10.17;7.30;;;15.30;48.00;16.60;97534.00;;;;5000338;28;20655;-84
2022/03/10 12:06:37;;;;;;;8.83;6.97;;;15.40;48.10;15.50;97525.00;;;;5012015;28;20260;-85
2022/03/10 12:09:30;;;;;;;8.37;7.47;;;15.60;47.30;15.20;97523.00;;;;5018186;28;20213;-84
2022/03/10 12:12:21;;;;;;;11.23;7.80;;;15.70;47.10;16.30;97536.00;;;;5011452;28;20251;-86
2022/03/10 12:15:49;;;;;;;12.03;7.50;;;15.70;45.60;14.90;97525.00;;;;5006155;28;20272;-85
2022/03/10 12:18:44;;;;;;;10.67;7.40;;;15.20;47.30;16.40;97523.00;;;;5010032;28;20986;-85
2022/03/10 12:21:34;;;;;;;11.93;9.80;;;15.40;47.60;16.90;97526.00;;;;5009896;28;20721;-85
2022/03/10 12:24:34;;;;;;;11.17;9.17;;;15.70;47.70;18.10;97530.00;;;;5009907;28;20671;-84
2022/03/10 12:27:25;;;;;;;10.87;9.03;;;16.00;48.00;18.80;97525.00;;;;5006399;28;20220;-84
2022/03/10 12:30:14;;;;;;;11.47;9.20;;;16.40;48.00;19.40;97523.00;;;;5002867;28;20208;-85
2022/03/10 12:33:03;;;;;;;11.87;8.87;;;16.90;47.70;17.70;97529.00;;;;5008572;28;20608;-85
2022/03/10 12:35:56;;;;;;;11.90;8.80;;;17.10;46.20;16.80;97510.00;;;;5005963;28;20210;-85
2022/03/10 12:38:47;;;;;;;13.60;10.13;;;17.10;46.00;16.50;97512.00;;;;5009257;28;20210;-84
2022/03/10 12:41:42;;;;;;;13.47;10.53;;;16.70;46.00;17.30;97527.00;;;;5008484;28;20222;-84
2022/03/10 12:44:31;;;;;;;13.17;10.23;;;16.80;47.00;15.30;97513.00;;;;5004429;28;20210;-84